Cheshire, Massachusetts
Current Conditions -  °F | °C
As of 9:52 AM on Saturday 22 Nov 2014 (Local Time) from KAQW Reporting Station
Clear Clear  
Wind Chill: 17°   Ceiling: Unl
Heat Index: 24°   Visibility: 10mi
Dew Point: 12°   Wind: 6mph
Humidity: 60%   Direction: 120°ESE
Pressure: 30.33"   Gusts: NA
Location:  42.56°N, 73.16°W
Report Text: KAQW 221452Z AUTO 12005KT 10SM CLR M04/M11 A3033 RMK AO2 SLP281 T10441111 58019
Loading
Personal Weather Stations






























Interactive Weather Map New forecast layout! Learn more

10-Day Weather Forecast

Advertisements
Track Severe Weather on mobile